sensor_id;sensor_type;location;lat;lon;timestamp;P1;durP1;ratioP1;P2;durP2;ratioP2
79052;SDS011;68451;49.510;6.026;2023-03-14T00:01:56;10.80;;;5.05;;
79052;SDS011;68451;49.510;6.026;2023-03-14T00:04:21;10.07;;;4.97;;
79052;SDS011;68451;49.510;6.026;2023-03-14T00:06:47;9.85;;;5.57;;
79052;SDS011;68451;49.510;6.026;2023-03-14T00:09:14;10.98;;;4.75;;
79052;SDS011;68451;49.510;6.026;2023-03-14T00:11:40;11.70;;;4.88;;
79052;SDS011;68451;49.510;6.026;2023-03-14T00:14:05;10.20;;;5.32;;
79052;SDS011;68451;49.510;6.026;2023-03-14T00:16:31;12.45;;;5.15;;
79052;SDS011;68451;49.510;6.026;2023-03-14T00:18:58;8.68;;;4.60;;
79052;SDS011;68451;49.510;6.026;2023-03-14T00:21:24;8.93;;;5.03;;
79052;SDS011;68451;49.510;6.026;2023-03-14T00:23:50;11.30;;;4.90;;
79052;SDS011;68451;49.510;6.026;2023-03-14T00:26:17;10.52;;;5.00;;
79052;SDS011;68451;49.510;6.026;2023-03-14T00:28:44;8.68;;;4.65;;
79052;SDS011;68451;49.510;6.026;2023-03-14T00:31:11;8.07;;;4.45;;
79052;SDS011;68451;49.510;6.026;2023-03-14T00:33:39;11.10;;;5.00;;
79052;SDS011;68451;49.510;6.026;2023-03-14T00:36:06;9.15;;;4.95;;
79052;SDS011;68451;49.510;6.026;2023-03-14T00:38:34;8.57;;;4.25;;
79052;SDS011;68451;49.510;6.026;2023-03-14T00:41:07;8.30;;;4.25;;
79052;SDS011;68451;49.510;6.026;2023-03-14T00:43:36;11.77;;;4.30;;
79052;SDS011;68451;49.510;6.026;2023-03-14T00:46:02;13.10;;;5.20;;
79052;SDS011;68451;49.510;6.026;2023-03-14T00:48:28;6.82;;;4.07;;
79052;SDS011;68451;49.510;6.026;2023-03-14T00:50:54;10.38;;;5.22;;
79052;SDS011;68451;49.510;6.026;2023-03-14T00:53:19;9.38;;;4.53;;
79052;SDS011;68451;49.510;6.026;2023-03-14T00:55:45;8.32;;;3.60;;
79052;SDS011;68451;49.510;6.026;2023-03-14T00:58:11;8.10;;;4.75;;
79052;SDS011;68451;49.510;6.026;2023-03-14T01:00:38;8.13;;;4.75;;
79052;SDS011;68451;49.510;6.026;2023-03-14T01:03:04;7.65;;;3.97;;
79052;SDS011;68451;49.510;6.026;2023-03-14T01:05:30;8.07;;;4.32;;
79052;SDS011;68451;49.510;6.026;2023-03-14T01:07:56;10.38;;;4.25;;
79052;SDS011;68451;49.510;6.026;2023-03-14T01:10:22;7.18;;;4.07;;
79052;SDS011;68451;49.510;6.026;2023-03-14T01:12:48;9.60;;;4.75;;
79052;SDS011;68451;49.510;6.026;2023-03-14T01:15:13;7.68;;;4.82;;
79052;SDS011;68451;49.510;6.026;2023-03-14T01:17:39;8.38;;;5.22;;
79052;SDS011;68451;49.510;6.026;2023-03-14T01:20:05;6.80;;;3.75;;
79052;SDS011;68451;49.510;6.026;2023-03-14T01:22:34;6.53;;;3.85;;
79052;SDS011;68451;49.510;6.026;2023-03-14T01:25:00;10.00;;;4.40;;
79052;SDS011;68451;49.510;6.026;2023-03-14T01:27:26;7.07;;;3.70;;
79052;SDS011;68451;49.510;6.026;2023-03-14T01:29:51;10.70;;;4.47;;
79052;SDS011;68451;49.510;6.026;2023-03-14T01:32:16;8.73;;;5.05;;
79052;SDS011;68451;49.510;6.026;2023-03-14T01:34:42;10.45;;;4.35;;
79052;SDS011;68451;49.510;6.026;2023-03-14T01:37:07;9.88;;;4.32;;
79052;SDS011;68451;49.510;6.026;2023-03-14T01:39:33;7.88;;;4.07;;
79052;SDS011;68451;49.510;6.026;2023-03-14T01:42:00;6.22;;;4.22;;
79052;SDS011;68451;49.510;6.026;2023-03-14T01:44:26;7.18;;;3.88;;
79052;SDS011;68451;49.510;6.026;2023-03-14T01:46:51;6.32;;;3.70;;
79052;SDS011;68451;49.510;6.026;2023-03-14T01:49:27;8.05;;;4.55;;
79052;SDS011;68451;49.510;6.026;2023-03-14T01:52:00;8.38;;;4.13;;
79052;SDS011;68451;49.510;6.026;2023-03-14T01:54:34;7.45;;;3.92;;
79052;SDS011;68451;49.510;6.026;2023-03-14T01:59:59;9.32;;;3.83;;
79052;SDS011;68451;49.510;6.026;2023-03-14T02:02:36;10.35;;;3.95;;
79052;SDS011;68451;49.510;6.026;2023-03-14T02:05:02;6.72;;;3.13;;
79052;SDS011;68451;49.510;6.026;2023-03-14T02:07:37;7.47;;;3.97;;
79052;SDS011;68451;49.510;6.026;2023-03-14T02:10:11;7.22;;;3.47;;
79052;SDS011;68451;49.510;6.026;2023-03-14T02:12:37;7.53;;;4.30;;
79052;SDS011;68451;49.510;6.026;2023-03-14T02:15:03;5.88;;;2.92;;
79052;SDS011;68451;49.510;6.026;2023-03-14T02:17:29;7.55;;;4.13;;
79052;SDS011;68451;49.510;6.026;2023-03-14T02:22:52;7.55;;;3.47;;
79052;SDS011;68451;49.510;6.026;2023-03-14T02:28:15;8.80;;;4.68;;
79052;SDS011;68451;49.510;6.026;2023-03-14T02:30:41;6.70;;;4.07;;
79052;SDS011;68451;49.510;6.026;2023-03-14T02:33:11;6.47;;;3.60;;
79052;SDS011;68451;49.510;6.026;2023-03-14T02:35:42;7.38;;;3.28;;
79052;SDS011;68451;49.510;6.026;2023-03-14T02:38:17;6.72;;;3.50;;
79052;SDS011;68451;49.510;6.026;2023-03-14T02:40:48;6.00;;;3.10;;
79052;SDS011;68451;49.510;6.026;2023-03-14T02:43:13;5.90;;;3.30;;
79052;SDS011;68451;49.510;6.026;2023-03-14T02:45:40;6.75;;;3.22;;
79052;SDS011;68451;49.510;6.026;2023-03-14T02:48:13;6.13;;;3.45;;
79052;SDS011;68451;49.510;6.026;2023-03-14T02:50:55;6.93;;;3.65;;
79052;SDS011;68451;49.510;6.026;2023-03-14T02:53:27;5.93;;;3.03;;
79052;SDS011;68451;49.510;6.026;2023-03-14T02:55:54;5.65;;;3.80;;
79052;SDS011;68451;49.510;6.026;2023-03-14T02:58:20;5.43;;;3.63;;
79052;SDS011;68451;49.510;6.026;2023-03-14T03:00:45;4.75;;;2.60;;
79052;SDS011;68451;49.510;6.026;2023-03-14T03:03:11;7.65;;;3.30;;
79052;SDS011;68451;49.510;6.026;2023-03-14T03:05:37;6.65;;;3.25;;
79052;SDS011;68451;49.510;6.026;2023-03-14T03:08:03;5.60;;;3.10;;
79052;SDS011;68451;49.510;6.026;2023-03-14T03:10:29;5.07;;;3.45;;
79052;SDS011;68451;49.510;6.026;2023-03-14T03:12:55;7.47;;;3.13;;
79052;SDS011;68451;49.510;6.026;2023-03-14T03:15:21;5.95;;;3.08;;
79052;SDS011;68451;49.510;6.026;2023-03-14T03:17:47;7.20;;;2.92;;
79052;SDS011;68451;49.510;6.026;2023-03-14T03:20:12;5.10;;;2.72;;
79052;SDS011;68451;49.510;6.026;2023-03-14T03:22:38;10.15;;;3.78;;
79052;SDS011;68451;49.510;6.026;2023-03-14T03:25:04;4.45;;;2.60;;
79052;SDS011;68451;49.510;6.026;2023-03-14T03:27:32;5.93;;;3.15;;
79052;SDS011;68451;49.510;6.026;2023-03-14T03:29:58;4.72;;;2.50;;
79052;SDS011;68451;49.510;6.026;2023-03-14T03:32:24;5.70;;;3.35;;
79052;SDS011;68451;49.510;6.026;2023-03-14T03:34:50;5.72;;;3.28;;
79052;SDS011;68451;49.510;6.026;2023-03-14T03:37:16;5.60;;;2.75;;
79052;SDS011;68451;49.510;6.026;2023-03-14T03:39:42;4.90;;;2.83;;
79052;SDS011;68451;49.510;6.026;2023-03-14T03:42:07;5.05;;;2.80;;
79052;SDS011;68451;49.510;6.026;2023-03-14T03:44:33;5.95;;;3.00;;
79052;SDS011;68451;49.510;6.026;2023-03-14T03:46:58;6.72;;;2.85;;
79052;SDS011;68451;49.510;6.026;2023-03-14T03:49:24;5.65;;;2.45;;
79052;SDS011;68451;49.510;6.026;2023-03-14T03:51:49;5.53;;;3.30;;
79052;SDS011;68451;49.510;6.026;2023-03-14T03:54:15;6.28;;;2.50;;
79052;SDS011;68451;49.510;6.026;2023-03-14T03:56:40;4.35;;;2.67;;
79052;SDS011;68451;49.510;6.026;2023-03-14T03:59:05;6.32;;;2.47;;
79052;SDS011;68451;49.510;6.026;2023-03-14T04:01:31;5.65;;;2.50;;
79052;SDS011;68451;49.510;6.026;2023-03-14T04:03:56;5.90;;;2.75;;
79052;SDS011;68451;49.510;6.026;2023-03-14T04:06:22;7.55;;;2.53;;
79052;SDS011;68451;49.510;6.026;2023-03-14T04:08:48;4.88;;;2.53;;
79052;SDS011;68451;49.510;6.026;2023-03-14T04:11:13;4.93;;;2.75;;
79052;SDS011;68451;49.510;6.026;2023-03-14T04:13:40;6.25;;;2.75;;
79052;SDS011;68451;49.510;6.026;2023-03-14T04:16:11;4.90;;;2.63;;
79052;SDS011;68451;49.510;6.026;2023-03-14T04:18:46;6.97;;;3.33;;
79052;SDS011;68451;49.510;6.026;2023-03-14T04:21:12;3.97;;;2.20;;
79052;SDS011;68451;49.510;6.026;2023-03-14T04:23:37;4.95;;;2.45;;
79052;SDS011;68451;49.510;6.026;2023-03-14T04:26:03;8.95;;;3.13;;
79052;SDS011;68451;49.510;6.026;2023-03-14T04:28:28;5.72;;;3.40;;
79052;SDS011;68451;49.510;6.026;2023-03-14T04:30:54;5.55;;;2.78;;
79052;SDS011;68451;49.510;6.026;2023-03-14T04:33:20;4.10;;;2.42;;
79052;SDS011;68451;49.510;6.026;2023-03-14T04:35:45;4.95;;;2.17;;
79052;SDS011;68451;49.510;6.026;2023-03-14T04:38:11;3.38;;;1.92;;
79052;SDS011;68451;49.510;6.026;2023-03-14T04:40:38;4.82;;;2.17;;
79052;SDS011;68451;49.510;6.026;2023-03-14T04:43:05;4.82;;;2.03;;
79052;SDS011;68451;49.510;6.026;2023-03-14T04:45:32;7.40;;;3.35;;
79052;SDS011;68451;49.510;6.026;2023-03-14T04:47:57;4.38;;;2.05;;
79052;SDS011;68451;49.510;6.026;2023-03-14T04:50:23;4.45;;;2.63;;
79052;SDS011;68451;49.510;6.026;2023-03-14T04:52:48;3.53;;;2.00;;
79052;SDS011;68451;49.510;6.026;2023-03-14T04:55:14;3.25;;;1.85;;
79052;SDS011;68451;49.510;6.026;2023-03-14T04:57:39;4.45;;;2.55;;
79052;SDS011;68451;49.510;6.026;2023-03-14T05:00:05;4.78;;;2.05;;
79052;SDS011;68451;49.510;6.026;2023-03-14T05:02:31;6.60;;;2.22;;
79052;SDS011;68451;49.510;6.026;2023-03-14T05:04:57;3.33;;;2.20;;
79052;SDS011;68451;49.510;6.026;2023-03-14T05:07:22;2.78;;;1.98;;
79052;SDS011;68451;49.510;6.026;2023-03-14T05:09:48;3.90;;;2.10;;
79052;SDS011;68451;49.510;6.026;2023-03-14T05:12:14;4.13;;;2.42;;
79052;SDS011;68451;49.510;6.026;2023-03-14T05:14:39;4.88;;;2.35;;
79052;SDS011;68451;49.510;6.026;2023-03-14T05:17:05;4.93;;;2.15;;
79052;SDS011;68451;49.510;6.026;2023-03-14T05:19:31;4.82;;;1.80;;
79052;SDS011;68451;49.510;6.026;2023-03-14T05:21:56;4.63;;;2.45;;
79052;SDS011;68451;49.510;6.026;2023-03-14T05:24:22;4.00;;;2.15;;
79052;SDS011;68451;49.510;6.026;2023-03-14T05:26:47;3.00;;;2.10;;
79052;SDS011;68451;49.510;6.026;2023-03-14T05:29:13;3.13;;;1.70;;
79052;SDS011;68451;49.510;6.026;2023-03-14T05:31:38;4.45;;;2.17;;
79052;SDS011;68451;49.510;6.026;2023-03-14T05:34:04;2.42;;;1.83;;
79052;SDS011;68451;49.510;6.026;2023-03-14T05:36:29;3.85;;;2.03;;
79052;SDS011;68451;49.510;6.026;2023-03-14T05:38:55;4.30;;;1.65;;
79052;SDS011;68451;49.510;6.026;2023-03-14T05:41:20;3.40;;;1.77;;
79052;SDS011;68451;49.510;6.026;2023-03-14T05:43:46;3.13;;;2.10;;
79052;SDS011;68451;49.510;6.026;2023-03-14T05:46:11;3.60;;;1.92;;
79052;SDS011;68451;49.510;6.026;2023-03-14T05:48:37;3.60;;;1.95;;
79052;SDS011;68451;49.510;6.026;2023-03-14T05:51:03;3.15;;;1.70;;
79052;SDS011;68451;49.510;6.026;2023-03-14T05:53:29;3.80;;;1.63;;
79052;SDS011;68451;49.510;6.026;2023-03-14T05:55:55;4.78;;;2.03;;
79052;SDS011;68451;49.510;6.026;2023-03-14T05:58:21;2.58;;;1.52;;
79052;SDS011;68451;49.510;6.026;2023-03-14T06:00:48;4.47;;;2.40;;
79052;SDS011;68451;49.510;6.026;2023-03-14T06:03:14;4.03;;;2.40;;
79052;SDS011;68451;49.510;6.026;2023-03-14T06:05:39;2.92;;;1.90;;
79052;SDS011;68451;49.510;6.026;2023-03-14T06:08:04;4.88;;;1.98;;
79052;SDS011;68451;49.510;6.026;2023-03-14T06:10:30;5.93;;;3.53;;
79052;SDS011;68451;49.510;6.026;2023-03-14T06:12:55;6.50;;;3.15;;
79052;SDS011;68451;49.510;6.026;2023-03-14T06:15:21;6.50;;;2.00;;
79052;SDS011;68451;49.510;6.026;2023-03-14T06:17:47;11.00;;;2.83;;
79052;SDS011;68451;49.510;6.026;2023-03-14T06:20:13;11.05;;;2.60;;
79052;SDS011;68451;49.510;6.026;2023-03-14T06:22:38;5.72;;;2.47;;
79052;SDS011;68451;49.510;6.026;2023-03-14T06:25:05;8.77;;;3.97;;
79052;SDS011;68451;49.510;6.026;2023-03-14T06:27:32;36.42;;;18.63;;
79052;SDS011;68451;49.510;6.026;2023-03-14T06:29:58;52.05;;;26.05;;
79052;SDS011;68451;49.510;6.026;2023-03-14T06:32:23;43.13;;;18.50;;
79052;SDS011;68451;49.510;6.026;2023-03-14T06:34:49;45.20;;;19.90;;
79052;SDS011;68451;49.510;6.026;2023-03-14T06:37:15;49.17;;;21.58;;
79052;SDS011;68451;49.510;6.026;2023-03-14T06:39:40;44.13;;;19.13;;
79052;SDS011;68451;49.510;6.026;2023-03-14T06:42:06;31.40;;;16.55;;
79052;SDS011;68451;49.510;6.026;2023-03-14T06:44:31;37.10;;;18.35;;
79052;SDS011;68451;49.510;6.026;2023-03-14T06:46:57;32.65;;;16.27;;
79052;SDS011;68451;49.510;6.026;2023-03-14T06:49:22;32.53;;;14.35;;
79052;SDS011;68451;49.510;6.026;2023-03-14T06:51:48;28.98;;;14.93;;
79052;SDS011;68451;49.510;6.026;2023-03-14T06:54:39;32.90;;;15.90;;
79052;SDS011;68451;49.510;6.026;2023-03-14T06:57:04;35.10;;;15.75;;
79052;SDS011;68451;49.510;6.026;2023-03-14T06:59:30;28.77;;;13.90;;
79052;SDS011;68451;49.510;6.026;2023-03-14T07:01:55;26.67;;;13.77;;
79052;SDS011;68451;49.510;6.026;2023-03-14T07:04:20;27.10;;;14.80;;
79052;SDS011;68451;49.510;6.026;2023-03-14T07:06:46;23.95;;;12.73;;
79052;SDS011;68451;49.510;6.026;2023-03-14T07:09:12;24.85;;;13.73;;
79052;SDS011;68451;49.510;6.026;2023-03-14T07:11:39;24.40;;;11.68;;
79052;SDS011;68451;49.510;6.026;2023-03-14T07:14:04;25.05;;;11.73;;
79052;SDS011;68451;49.510;6.026;2023-03-14T07:16:30;21.23;;;10.77;;
79052;SDS011;68451;49.510;6.026;2023-03-14T07:18:58;20.38;;;10.40;;
79052;SDS011;68451;49.510;6.026;2023-03-14T07:21:24;20.50;;;11.45;;
79052;SDS011;68451;49.510;6.026;2023-03-14T07:23:50;20.98;;;10.23;;
79052;SDS011;68451;49.510;6.026;2023-03-14T07:26:15;22.55;;;10.32;;
79052;SDS011;68451;49.510;6.026;2023-03-14T07:28:41;23.92;;;10.90;;
79052;SDS011;68451;49.510;6.026;2023-03-14T07:31:07;20.50;;;10.50;;
79052;SDS011;68451;49.510;6.026;2023-03-14T07:33:33;20.92;;;9.85;;
79052;SDS011;68451;49.510;6.026;2023-03-14T07:35:59;16.58;;;9.23;;
79052;SDS011;68451;49.510;6.026;2023-03-14T07:38:24;18.77;;;9.45;;
79052;SDS011;68451;49.510;6.026;2023-03-14T07:40:50;18.92;;;10.60;;
79052;SDS011;68451;49.510;6.026;2023-03-14T07:43:22;18.15;;;9.23;;
79052;SDS011;68451;49.510;6.026;2023-03-14T07:45:47;17.65;;;10.05;;
79052;SDS011;68451;49.510;6.026;2023-03-14T07:48:13;14.95;;;8.38;;
79052;SDS011;68451;49.510;6.026;2023-03-14T07:50:38;15.88;;;8.55;;
79052;SDS011;68451;49.510;6.026;2023-03-14T07:53:04;21.10;;;8.85;;
79052;SDS011;68451;49.510;6.026;2023-03-14T07:55:29;18.40;;;8.55;;
79052;SDS011;68451;49.510;6.026;2023-03-14T07:57:55;16.58;;;8.00;;
79052;SDS011;68451;49.510;6.026;2023-03-14T08:00:20;20.70;;;9.32;;
79052;SDS011;68451;49.510;6.026;2023-03-14T08:02:46;15.02;;;7.10;;
79052;SDS011;68451;49.510;6.026;2023-03-14T08:05:12;16.13;;;8.18;;
79052;SDS011;68451;49.510;6.026;2023-03-14T08:07:37;14.43;;;7.32;;
79052;SDS011;68451;49.510;6.026;2023-03-14T08:10:03;14.15;;;8.55;;
79052;SDS011;68451;49.510;6.026;2023-03-14T08:12:30;13.95;;;6.57;;
79052;SDS011;68451;49.510;6.026;2023-03-14T08:14:55;17.17;;;7.57;;
79052;SDS011;68451;49.510;6.026;2023-03-14T08:17:21;14.75;;;8.05;;
79052;SDS011;68451;49.510;6.026;2023-03-14T08:19:46;13.65;;;6.60;;
79052;SDS011;68451;49.510;6.026;2023-03-14T08:22:12;13.43;;;6.20;;
79052;SDS011;68451;49.510;6.026;2023-03-14T08:24:37;12.10;;;6.22;;
79052;SDS011;68451;49.510;6.026;2023-03-14T08:27:03;10.02;;;6.13;;
79052;SDS011;68451;49.510;6.026;2023-03-14T08:29:28;10.63;;;7.13;;
79052;SDS011;68451;49.510;6.026;2023-03-14T08:31:54;9.85;;;5.90;;
79052;SDS011;68451;49.510;6.026;2023-03-14T08:34:20;13.30;;;6.53;;
79052;SDS011;68451;49.510;6.026;2023-03-14T08:36:45;13.38;;;6.70;;
79052;SDS011;68451;49.510;6.026;2023-03-14T08:39:11;13.27;;;6.25;;
79052;SDS011;68451;49.510;6.026;2023-03-14T08:41:36;11.05;;;6.30;;
79052;SDS011;68451;49.510;6.026;2023-03-14T08:47:19;11.23;;;5.68;;
79052;SDS011;68451;49.510;6.026;2023-03-14T08:49:45;9.02;;;5.40;;
79052;SDS011;68451;49.510;6.026;2023-03-14T08:52:11;9.60;;;5.55;;
79052;SDS011;68451;49.510;6.026;2023-03-14T08:54:36;10.18;;;5.65;;
79052;SDS011;68451;49.510;6.026;2023-03-14T08:57:02;10.10;;;6.05;;
79052;SDS011;68451;49.510;6.026;2023-03-14T08:59:27;9.52;;;5.85;;
79052;SDS011;68451;49.510;6.026;2023-03-14T09:01:53;9.07;;;4.88;;
79052;SDS011;68451;49.510;6.026;2023-03-14T09:04:19;8.52;;;4.53;;
79052;SDS011;68451;49.510;6.026;2023-03-14T09:06:45;10.38;;;5.20;;
79052;SDS011;68451;49.510;6.026;2023-03-14T09:09:10;8.05;;;4.65;;
79052;SDS011;68451;49.510;6.026;2023-03-14T09:11:36;12.00;;;5.43;;
79052;SDS011;68451;49.510;6.026;2023-03-14T09:14:02;9.10;;;4.43;;
79052;SDS011;68451;49.510;6.026;2023-03-14T09:16:27;7.63;;;4.72;;
79052;SDS011;68451;49.510;6.026;2023-03-14T09:18:53;8.70;;;4.60;;
79052;SDS011;68451;49.510;6.026;2023-03-14T09:21:20;7.30;;;4.65;;
79052;SDS011;68451;49.510;6.026;2023-03-14T09:23:46;10.27;;;3.95;;
79052;SDS011;68451;49.510;6.026;2023-03-14T09:26:12;7.72;;;3.90;;
79052;SDS011;68451;49.510;6.026;2023-03-14T09:28:38;6.85;;;4.25;;
79052;SDS011;68451;49.510;6.026;2023-03-14T09:31:07;8.48;;;4.75;;
79052;SDS011;68451;49.510;6.026;2023-03-14T09:33:34;6.97;;;3.63;;
79052;SDS011;68451;49.510;6.026;2023-03-14T09:36:00;8.13;;;3.90;;
79052;SDS011;68451;49.510;6.026;2023-03-14T09:38:25;7.22;;;3.58;;
79052;SDS011;68451;49.510;6.026;2023-03-14T09:40:51;6.03;;;3.50;;
79052;SDS011;68451;49.510;6.026;2023-03-14T09:43:18;9.40;;;4.55;;
79052;SDS011;68451;49.510;6.026;2023-03-14T09:45:46;7.55;;;3.47;;
79052;SDS011;68451;49.510;6.026;2023-03-14T09:48:15;6.00;;;3.63;;
79052;SDS011;68451;49.510;6.026;2023-03-14T09:50:51;7.43;;;3.85;;
79052;SDS011;68451;49.510;6.026;2023-03-14T09:53:20;6.80;;;3.97;;
79052;SDS011;68451;49.510;6.026;2023-03-14T09:55:49;7.72;;;3.60;;
79052;SDS011;68451;49.510;6.026;2023-03-14T09:58:21;6.70;;;3.53;;
79052;SDS011;68451;49.510;6.026;2023-03-14T10:00:52;7.53;;;3.75;;
79052;SDS011;68451;49.510;6.026;2023-03-14T10:03:25;8.90;;;3.72;;
79052;SDS011;68451;49.510;6.026;2023-03-14T10:05:56;6.75;;;4.22;;
79052;SDS011;68451;49.510;6.026;2023-03-14T10:08:22;7.60;;;3.60;;
79052;SDS011;68451;49.510;6.026;2023-03-14T10:10:48;5.10;;;2.72;;
79052;SDS011;68451;49.510;6.026;2023-03-14T10:13:18;6.93;;;3.47;;
79052;SDS011;68451;49.510;6.026;2023-03-14T10:15:58;6.35;;;3.08;;
79052;SDS011;68451;49.510;6.026;2023-03-14T10:18:29;7.32;;;3.28;;
79052;SDS011;68451;49.510;6.026;2023-03-14T10:21:04;5.07;;;3.05;;
79052;SDS011;68451;49.510;6.026;2023-03-14T10:23:43;4.07;;;3.17;;
79052;SDS011;68451;49.510;6.026;2023-03-14T10:26:14;4.65;;;3.42;;
79052;SDS011;68451;49.510;6.026;2023-03-14T10:28:46;5.78;;;3.17;;
79052;SDS011;68451;49.510;6.026;2023-03-14T10:31:13;5.18;;;2.50;;
79052;SDS011;68451;49.510;6.026;2023-03-14T10:33:39;5.95;;;3.53;;
79052;SDS011;68451;49.510;6.026;2023-03-14T10:36:15;5.75;;;2.75;;
79052;SDS011;68451;49.510;6.026;2023-03-14T10:38:48;5.28;;;2.42;;
79052;SDS011;68451;49.510;6.026;2023-03-14T10:41:16;5.40;;;2.65;;
79052;SDS011;68451;49.510;6.026;2023-03-14T10:43:56;4.18;;;2.90;;
79052;SDS011;68451;49.510;6.026;2023-03-14T10:46:24;5.30;;;2.28;;
79052;SDS011;68451;49.510;6.026;2023-03-14T10:48:52;5.20;;;2.15;;
79052;SDS011;68451;49.510;6.026;2023-03-14T10:51:25;4.15;;;2.35;;
79052;SDS011;68451;49.510;6.026;2023-03-14T10:53:57;6.07;;;2.97;;
79052;SDS011;68451;49.510;6.026;2023-03-14T10:56:28;3.80;;;2.40;;
79052;SDS011;68451;49.510;6.026;2023-03-14T10:59:00;5.32;;;3.20;;
79052;SDS011;68451;49.510;6.026;2023-03-14T11:07:08;4.50;;;2.58;;
79052;SDS011;68451;49.510;6.026;2023-03-14T11:09:47;6.30;;;2.25;;
79052;SDS011;68451;49.510;6.026;2023-03-14T11:12:41;4.93;;;2.45;;
79052;SDS011;68451;49.510;6.026;2023-03-14T11:15:32;5.90;;;2.65;;
79052;SDS011;68451;49.510;6.026;2023-03-14T11:18:23;3.08;;;2.20;;
79052;SDS011;68451;49.510;6.026;2023-03-14T11:24:08;4.28;;;2.22;;
79052;SDS011;68451;49.510;6.026;2023-03-14T11:26:51;3.72;;;2.42;;
79052;SDS011;68451;49.510;6.026;2023-03-14T11:29:30;4.63;;;2.20;;
79052;SDS011;68451;49.510;6.026;2023-03-14T11:32:12;4.90;;;2.10;;
79052;SDS011;68451;49.510;6.026;2023-03-14T11:34:50;3.55;;;2.15;;
79052;SDS011;68451;49.510;6.026;2023-03-14T11:42:58;4.57;;;3.17;;
79052;SDS011;68451;49.510;6.026;2023-03-14T11:45:30;4.18;;;2.58;;
79052;SDS011;68451;49.510;6.026;2023-03-14T11:50:52;5.47;;;2.63;;
79052;SDS011;68451;49.510;6.026;2023-03-14T11:53:35;2.60;;;1.90;;
79052;SDS011;68451;49.510;6.026;2023-03-14T11:56:24;4.70;;;2.85;;
79052;SDS011;68451;49.510;6.026;2023-03-14T11:59:03;3.50;;;2.10;;
79052;SDS011;68451;49.510;6.026;2023-03-14T12:01:36;6.03;;;2.33;;
79052;SDS011;68451;49.510;6.026;2023-03-14T12:04:20;4.28;;;2.15;;
79052;SDS011;68451;49.510;6.026;2023-03-14T12:07:02;6.43;;;3.17;;
79052;SDS011;68451;49.510;6.026;2023-03-14T12:09:33;4.82;;;3.00;;
79052;SDS011;68451;49.510;6.026;2023-03-14T12:12:01;6.53;;;2.90;;
79052;SDS011;68451;49.510;6.026;2023-03-14T12:14:32;6.93;;;4.07;;
79052;SDS011;68451;49.510;6.026;2023-03-14T12:17:07;6.75;;;3.58;;
79052;SDS011;68451;49.510;6.026;2023-03-14T12:19:46;6.80;;;3.88;;
79052;SDS011;68451;49.510;6.026;2023-03-14T12:22:17;9.45;;;4.22;;
79052;SDS011;68451;49.510;6.026;2023-03-14T12:24:51;8.43;;;4.53;;
79052;SDS011;68451;49.510;6.026;2023-03-14T12:33:19;7.00;;;4.22;;
79052;SDS011;68451;49.510;6.026;2023-03-14T12:35:51;6.68;;;3.78;;
79052;SDS011;68451;49.510;6.026;2023-03-14T12:38:37;7.57;;;4.38;;
79052;SDS011;68451;49.510;6.026;2023-03-14T12:41:17;7.55;;;4.55;;
79052;SDS011;68451;49.510;6.026;2023-03-14T12:43:47;7.10;;;5.05;;
79052;SDS011;68451;49.510;6.026;2023-03-14T12:46:19;10.70;;;4.40;;
79052;SDS011;68451;49.510;6.026;2023-03-14T12:48:55;7.50;;;4.65;;
79052;SDS011;68451;49.510;6.026;2023-03-14T12:51:33;9.20;;;5.05;;
79052;SDS011;68451;49.510;6.026;2023-03-14T12:54:08;8.27;;;4.63;;
79052;SDS011;68451;49.510;6.026;2023-03-14T12:56:48;9.38;;;4.75;;
79052;SDS011;68451;49.510;6.026;2023-03-14T12:59:30;10.57;;;5.32;;
79052;SDS011;68451;49.510;6.026;2023-03-14T13:02:17;6.72;;;5.10;;
79052;SDS011;68451;49.510;6.026;2023-03-14T13:05:00;8.73;;;4.22;;
79052;SDS011;68451;49.510;6.026;2023-03-14T13:08:01;8.88;;;5.45;;
79052;SDS011;68451;49.510;6.026;2023-03-14T13:10:38;9.30;;;4.72;;
79052;SDS011;68451;49.510;6.026;2023-03-14T13:15:48;9.77;;;4.82;;
79052;SDS011;68451;49.510;6.026;2023-03-14T13:21:07;12.52;;;5.28;;
79052;SDS011;68451;49.510;6.026;2023-03-14T13:23:55;9.20;;;4.40;;
79052;SDS011;68451;49.510;6.026;2023-03-14T13:26:31;12.02;;;5.45;;
79052;SDS011;68451;49.510;6.026;2023-03-14T13:28:59;9.93;;;5.93;;
79052;SDS011;68451;49.510;6.026;2023-03-14T13:31:25;10.88;;;5.53;;
79052;SDS011;68451;49.510;6.026;2023-03-14T13:33:58;8.98;;;5.07;;
79052;SDS011;68451;49.510;6.026;2023-03-14T13:36:24;10.70;;;4.68;;
79052;SDS011;68451;49.510;6.026;2023-03-14T13:38:55;9.82;;;4.75;;
79052;SDS011;68451;49.510;6.026;2023-03-14T13:41:22;17.03;;;5.97;;
79052;SDS011;68451;49.510;6.026;2023-03-14T13:43:48;9.02;;;5.45;;
79052;SDS011;68451;49.510;6.026;2023-03-14T13:46:15;8.18;;;4.70;;
79052;SDS011;68451;49.510;6.026;2023-03-14T13:49:04;9.98;;;5.05;;
79052;SDS011;68451;49.510;6.026;2023-03-14T13:51:31;8.13;;;4.78;;
79052;SDS011;68451;49.510;6.026;2023-03-14T13:54:01;8.18;;;5.63;;
79052;SDS011;68451;49.510;6.026;2023-03-14T13:56:29;8.82;;;5.55;;
79052;SDS011;68451;49.510;6.026;2023-03-14T13:58:56;9.57;;;5.03;;
79052;SDS011;68451;49.510;6.026;2023-03-14T14:01:32;8.60;;;4.63;;
79052;SDS011;68451;49.510;6.026;2023-03-14T14:04:02;11.65;;;5.32;;
79052;SDS011;68451;49.510;6.026;2023-03-14T14:06:34;10.07;;;5.10;;
79052;SDS011;68451;49.510;6.026;2023-03-14T14:09:02;10.80;;;4.95;;
79052;SDS011;68451;49.510;6.026;2023-03-14T14:14:28;9.82;;;5.07;;
79052;SDS011;68451;49.510;6.026;2023-03-14T14:16:57;9.82;;;5.40;;
79052;SDS011;68451;49.510;6.026;2023-03-14T14:19:25;9.10;;;5.32;;
79052;SDS011;68451;49.510;6.026;2023-03-14T14:21:55;9.95;;;6.05;;
79052;SDS011;68451;49.510;6.026;2023-03-14T14:24:23;10.82;;;5.65;;
79052;SDS011;68451;49.510;6.026;2023-03-14T14:26:51;9.30;;;6.07;;
79052;SDS011;68451;49.510;6.026;2023-03-14T14:29:23;11.48;;;6.13;;
79052;SDS011;68451;49.510;6.026;2023-03-14T14:32:01;11.35;;;5.78;;
79052;SDS011;68451;49.510;6.026;2023-03-14T14:34:28;9.23;;;5.35;;
79052;SDS011;68451;49.510;6.026;2023-03-14T14:36:54;11.52;;;5.45;;
79052;SDS011;68451;49.510;6.026;2023-03-14T14:39:21;11.80;;;5.53;;
79052;SDS011;68451;49.510;6.026;2023-03-14T14:41:49;10.65;;;5.07;;
79052;SDS011;68451;49.510;6.026;2023-03-14T14:44:16;11.05;;;5.60;;
79052;SDS011;68451;49.510;6.026;2023-03-14T14:46:46;9.82;;;5.80;;
79052;SDS011;68451;49.510;6.026;2023-03-14T14:49:16;9.02;;;5.22;;
79052;SDS011;68451;49.510;6.026;2023-03-14T14:51:47;9.05;;;5.45;;
79052;SDS011;68451;49.510;6.026;2023-03-14T14:57:20;11.63;;;5.68;;
79052;SDS011;68451;49.510;6.026;2023-03-14T14:59:49;11.23;;;5.95;;
79052;SDS011;68451;49.510;6.026;2023-03-14T15:02:36;10.63;;;5.63;;
79052;SDS011;68451;49.510;6.026;2023-03-14T15:05:05;10.07;;;5.57;;
79052;SDS011;68451;49.510;6.026;2023-03-14T15:07:37;10.23;;;5.22;;
79052;SDS011;68451;49.510;6.026;2023-03-14T15:10:02;10.63;;;5.07;;
79052;SDS011;68451;49.510;6.026;2023-03-14T15:12:28;9.55;;;5.47;;
79052;SDS011;68451;49.510;6.026;2023-03-14T15:14:54;11.63;;;6.32;;
79052;SDS011;68451;49.510;6.026;2023-03-14T15:17:22;11.75;;;5.97;;
79052;SDS011;68451;49.510;6.026;2023-03-14T15:19:48;8.38;;;5.80;;
79052;SDS011;68451;49.510;6.026;2023-03-14T15:22:13;9.20;;;6.13;;
79052;SDS011;68451;49.510;6.026;2023-03-14T15:24:39;10.70;;;5.60;;
79052;SDS011;68451;49.510;6.026;2023-03-14T15:27:09;10.50;;;5.47;;
79052;SDS011;68451;49.510;6.026;2023-03-14T15:29:41;8.00;;;5.43;;
79052;SDS011;68451;49.510;6.026;2023-03-14T15:32:09;8.63;;;5.10;;
79052;SDS011;68451;49.510;6.026;2023-03-14T15:34:36;8.70;;;4.22;;
79052;SDS011;68451;49.510;6.026;2023-03-14T15:37:02;8.25;;;4.95;;
79052;SDS011;68451;49.510;6.026;2023-03-14T15:39:32;9.15;;;5.20;;